Time;durP1;ratioP1;P1;durP2;ratioP2;P2;SDS_P1;SDS_P2;PMS_P1;PMS_P2;Temp;Humidity;BMP_temperature;BMP_pressure;BME280_temperature;BME280_humidity;BME280_pressure;Samples;Min_cycle;Max_cycle;Signal;HPM_P1;HPM_P2
2023/06/18 00:00:53;;;;;;;14.00;12.60;;;;;;;13.03;79.78;100814.72;5006196;28;20758;-75
2023/06/18 00:03:20;;;;;;;16.07;14.07;;;;;;;12.99;79.88;100800.56;5006912;28;20756;-75
2023/06/18 00:05:46;;;;;;;15.27;13.47;;;;;;;12.96;79.80;100806.56;5007478;28;20208;-75
2023/06/18 00:08:12;;;;;;;15.97;14.37;;;;;;;12.93;79.68;100815.13;5004699;28;20505;-75
2023/06/18 00:10:39;;;;;;;16.33;14.63;;;;;;;12.89;79.48;100808.97;5004915;28;20236;-74
2023/06/18 00:13:06;;;;;;;16.03;14.27;;;;;;;12.85;79.38;100809.97;5004919;28;20231;-76
2023/06/18 00:15:34;;;;;;;15.33;13.83;;;;;;;12.82;79.59;100805.31;5005514;28;20211;-75
2023/06/18 00:18:01;;;;;;;15.43;13.83;;;;;;;12.80;79.93;100804.91;5005472;28;20217;-75
2023/06/18 00:20:27;;;;;;;15.50;14.00;;;;;;;12.77;79.97;100801.03;5004918;28;20244;-75
2023/06/18 00:22:54;;;;;;;15.20;13.63;;;;;;;12.75;80.19;100805.13;5004353;28;20229;-75
2023/06/18 00:25:21;;;;;;;14.70;13.10;;;;;;;12.73;80.53;100804.69;5005673;28;20621;-75
2023/06/18 00:27:48;;;;;;;15.27;13.70;;;;;;;12.71;80.77;100812.19;5003977;28;20230;-75
2023/06/18 00:30:17;;;;;;;16.50;13.70;;;;;;;12.70;80.78;100821.25;5002655;28;20201;-75
2023/06/18 00:32:45;;;;;;;14.37;12.13;;;;;;;12.69;81.18;100817.81;5005079;28;20747;-75
2023/06/18 00:35:14;;;;;;;13.97;12.47;;;;;;;12.68;81.26;100810.97;5002537;28;20648;-75
2023/06/18 00:37:43;;;;;;;13.27;11.87;;;;;;;12.67;81.12;100800.72;5002470;28;20228;-74
2023/06/18 00:40:12;;;;;;;13.50;12.10;;;;;;;12.63;81.26;100808.56;5000628;28;20239;-75
2023/06/18 00:42:43;;;;;;;13.20;11.90;;;;;;;12.62;81.00;100800.97;4999900;28;20213;-75
2023/06/18 00:45:12;;;;;;;14.20;12.03;;;;;;;12.62;81.06;100793.03;5002060;28;20224;-75
2023/06/18 00:47:42;;;;;;;15.23;13.27;;;;;;;12.62;81.27;100790.38;4999810;28;20730;-75
2023/06/18 00:50:14;;;;;;;13.80;12.37;;;;;;;12.59;81.55;100785.72;5021834;28;20650;-75
2023/06/18 00:52:44;;;;;;;16.17;13.80;;;;;;;12.57;81.47;100795.91;5003542;28;20699;-75
2023/06/18 00:55:13;;;;;;;14.83;13.33;;;;;;;12.56;81.11;100794.31;5004536;28;20723;-74
2023/06/18 00:57:42;;;;;;;14.47;13.03;;;;;;;12.54;81.33;100801.84;5001737;28;20246;-74
2023/06/18 01:00:12;;;;;;;12.80;11.53;;;;;;;12.53;81.20;100803.72;5001972;28;20212;-74
2023/06/18 01:02:49;;;;;;;14.63;13.13;;;;;;;12.52;81.34;100812.00;5005839;28;20597;-74
2023/06/18 01:05:19;;;;;;;14.37;12.97;;;;;;;12.50;81.31;100811.56;5004259;28;20214;-74
2023/06/18 01:07:47;;;;;;;13.47;12.07;;;;;;;12.47;81.57;100802.41;5004937;28;20249;-74
2023/06/18 01:10:16;;;;;;;14.50;12.97;;;;;;;12.45;81.50;100801.97;5021347;28;20255;-75
2023/06/18 01:12:48;;;;;;;15.10;13.50;;;;;;;12.43;81.61;100801.50;5002807;28;20210;-75
2023/06/18 01:15:15;;;;;;;14.53;13.03;;;;;;;12.41;81.37;100803.72;5001278;28;20215;-75
2023/06/18 01:17:47;;;;;;;13.87;12.47;;;;;;;12.41;81.35;100810.88;5002339;28;21981;-76
2023/06/18 01:20:18;;;;;;;13.93;12.63;;;;;;;12.39;81.75;100808.59;5003002;28;20205;-74
2023/06/18 01:22:51;;;;;;;13.93;12.43;;;;;;;12.37;81.34;100810.03;4999996;28;20232;-75
2023/06/18 01:25:19;;;;;;;14.20;12.70;;;;;;;12.34;81.32;100800.88;5003665;28;20209;-75
2023/06/18 01:27:47;;;;;;;13.67;12.20;;;;;;;12.34;81.85;100810.69;5003431;28;20217;-75
2023/06/18 01:30:14;;;;;;;15.47;13.50;;;;;;;12.31;81.58;100817.41;5001710;28;20305;-75
2023/06/18 01:32:41;;;;;;;15.30;13.63;;;;;;;12.28;82.05;100815.44;5003105;28;20207;-75
2023/06/18 01:35:15;;;;;;;16.43;13.90;;;;;;;12.28;81.90;100809.34;5004751;28;20198;-75
2023/06/18 01:37:51;;;;;;;14.53;13.03;;;;;;;12.25;81.85;100808.13;5004614;28;20220;-75
2023/06/18 01:40:28;;;;;;;15.53;13.83;;;;;;;12.24;82.07;100803.94;5004324;28;20211;-75
2023/06/18 01:43:02;;;;;;;14.10;12.70;;;;;;;12.22;81.93;100803.50;5003600;28;20583;-75
2023/06/18 01:45:34;;;;;;;15.50;13.80;;;;;;;12.20;82.21;100807.56;5004648;28;20251;-75
2023/06/18 01:48:03;;;;;;;15.60;13.73;;;;;;;12.20;82.18;100808.34;5001353;28;20312;-74
2023/06/18 01:50:33;;;;;;;15.07;13.47;;;;;;;12.18;82.46;100807.94;5000968;28;20212;-75
2023/06/18 01:53:03;;;;;;;17.83;13.90;;;;;;;12.15;82.35;100813.88;5021697;28;20208;-75
2023/06/18 01:55:33;;;;;;;15.97;14.27;;;;;;;12.15;81.98;100815.72;5008525;28;20197;-75
2023/06/18 01:57:59;;;;;;;14.00;12.60;;;;;;;12.14;82.44;100814.97;5005826;28;20244;-75
2023/06/18 02:00:26;;;;;;;15.53;13.93;;;;;;;12.11;82.46;100812.97;5007222;28;20216;-75
2023/06/18 02:02:52;;;;;;;14.43;12.83;;;;;;;12.11;82.51;100822.81;5008319;28;20212;-75
2023/06/18 02:05:19;;;;;;;15.77;14.13;;;;;;;12.08;82.68;100818.94;5009227;28;20199;-74
2023/06/18 02:07:46;;;;;;;15.07;13.43;;;;;;;12.07;82.64;100833.25;5006133;28;20232;-74
2023/06/18 02:10:13;;;;;;;14.70;13.30;;;;;;;12.03;82.33;100826.31;5007315;28;20197;-74
2023/06/18 02:12:40;;;;;;;15.33;13.70;;;;;;;12.02;82.64;100830.06;5007462;28;20200;-75
2023/06/18 02:15:09;;;;;;;14.20;12.80;;;;;;;11.99;82.35;100836.78;5008349;28;20663;-74
2023/06/18 02:17:36;;;;;;;15.23;13.73;;;;;;;11.98;82.23;100834.47;5007850;28;20315;-74
2023/06/18 02:20:03;;;;;;;13.90;12.53;;;;;;;11.99;82.21;100836.00;5005826;28;20245;-75
2023/06/18 02:22:29;;;;;;;14.03;12.63;;;;;;;11.97;82.72;100828.41;5009797;28;20197;-74
2023/06/18 02:24:56;;;;;;;16.53;14.03;;;;;;;11.95;82.50;100832.47;5006677;28;20215;-74
2023/06/18 02:27:24;;;;;;;15.10;13.53;;;;;;;11.94;82.62;100837.00;5009236;28;20201;-76
2023/06/18 02:29:51;;;;;;;16.03;14.17;;;;;;;11.95;82.49;100837.78;5004503;28;20228;-75
2023/06/18 02:32:17;;;;;;;15.73;14.20;;;;;;;11.93;82.38;100835.47;5007246;28;20208;-75
2023/06/18 02:34:43;;;;;;;14.90;13.37;;;;;;;11.94;83.33;100833.56;5007307;28;20208;-75
2023/06/18 02:37:10;;;;;;;16.70;14.87;;;;;;;11.91;83.01;100837.63;5023636;28;20659;-75
2023/06/18 02:39:37;;;;;;;15.37;13.80;;;;;;;11.89;83.15;100833.78;5007488;28;20275;-75
2023/06/18 02:42:06;;;;;;;14.70;13.03;;;;;;;11.89;83.34;100834.56;5006932;28;20227;-75
2023/06/18 02:44:34;;;;;;;14.97;13.40;;;;;;;11.89;82.61;100836.41;5005888;28;20208;-75
2023/06/18 02:47:02;;;;;;;14.87;13.37;;;;;;;11.87;83.19;100841.28;5006715;28;20215;-75
2023/06/18 02:49:29;;;;;;;15.07;13.57;;;;;;;11.84;83.04;100839.28;5006605;28;20213;-75
2023/06/18 02:51:55;;;;;;;17.27;15.47;;;;;;;11.82;82.65;100838.84;5006705;28;20292;-75
2023/06/18 02:54:22;;;;;;;16.10;14.40;;;;;;;11.82;82.88;100836.97;5000493;28;20300;-75
2023/06/18 02:56:48;;;;;;;14.27;12.77;;;;;;;11.81;83.42;100835.41;5004788;28;20228;-75
2023/06/18 02:59:15;;;;;;;15.00;12.63;;;;;;;11.80;82.68;100836.50;5004833;28;20243;-75
2023/06/18 03:01:45;;;;;;;16.97;13.73;;;;;;;11.79;83.30;100837.63;5006051;28;20906;-74
2023/06/18 03:04:11;;;;;;;17.97;14.97;;;;;;;11.80;83.40;100841.81;5005209;28;20216;-75
2023/06/18 03:06:38;;;;;;;15.67;13.83;;;;;;;11.80;83.06;100836.50;5006115;28;20556;-74
2023/06/18 03:09:05;;;;;;;16.90;14.57;;;;;;;11.79;83.54;100836.84;5005591;28;20228;-75
2023/06/18 03:11:31;;;;;;;16.30;14.60;;;;;;;11.79;83.25;100836.84;5006121;28;20563;-76
2023/06/18 03:14:00;;;;;;;16.73;15.07;;;;;;;11.80;82.58;100841.81;5005069;28;20642;-75
2023/06/18 03:16:27;;;;;;;15.17;13.57;;;;;;;11.81;83.49;100845.22;5005619;28;20404;-75
2023/06/18 03:18:56;;;;;;;16.00;13.77;;;;;;;11.83;82.84;100841.16;5005278;28;20303;-75
2023/06/18 03:21:24;;;;;;;16.37;14.77;;;;;;;11.68;83.40;100841.78;5004311;28;20291;-76
2023/06/18 03:23:54;;;;;;;16.97;15.17;;;;;;;11.82;84.05;100846.78;5000222;28;20208;-75
2023/06/18 03:26:21;;;;;;;16.80;15.10;;;;;;;11.88;82.99;100848.88;4998866;28;20201;-75
2023/06/18 03:28:48;;;;;;;15.23;13.63;;;;;;;11.91;83.49;100842.94;5004929;28;20309;-75
2023/06/18 03:31:14;;;;;;;16.13;14.43;;;;;;;11.95;83.48;100848.38;5004381;28;20606;-76
2023/06/18 03:33:41;;;;;;;17.27;15.37;;;;;;;11.98;83.73;100847.69;5003395;28;20239;-75
2023/06/18 03:36:11;;;;;;;15.83;14.10;;;;;;;12.03;83.72;100850.13;5006005;28;20211;-75
2023/06/18 03:38:39;;;;;;;15.57;13.97;;;;;;;12.07;82.61;100857.06;5005214;28;20595;-75
2023/06/18 03:41:06;;;;;;;16.17;14.47;;;;;;;12.13;83.09;100855.00;5005828;28;20270;-76
2023/06/18 03:43:34;;;;;;;15.27;13.77;;;;;;;12.20;83.13;100863.94;5003928;28;20205;-75
2023/06/18 03:46:01;;;;;;;16.20;14.53;;;;;;;12.27;83.29;100858.13;5001945;28;20201;-76
2023/06/18 03:48:29;;;;;;;16.20;13.93;;;;;;;12.34;83.64;100859.13;5004008;28;20316;-76
2023/06/18 03:50:57;;;;;;;15.37;13.53;;;;;;;12.42;82.94;100860.13;5003150;28;20723;-76
2023/06/18 03:53:26;;;;;;;16.07;14.37;;;;;;;12.48;82.71;100864.84;5002237;28;20206;-76
2023/06/18 03:55:53;;;;;;;17.30;14.17;;;;;;;12.55;82.62;100859.00;5003753;28;20276;-76
2023/06/18 03:58:19;;;;;;;16.33;14.40;;;;;;;12.61;82.27;100862.97;5001303;28;20296;-76
2023/06/18 04:00:51;;;;;;;16.47;14.13;;;;;;;12.67;82.22;100854.47;5001533;28;20608;-75
2023/06/18 04:03:18;;;;;;;15.53;14.03;;;;;;;12.76;82.37;100862.31;5001875;28;20228;-76
2023/06/18 04:05:45;;;;;;;15.27;13.67;;;;;;;12.85;82.25;100860.31;5004232;28;20363;-76
2023/06/18 04:08:11;;;;;;;15.10;13.60;;;;;;;12.94;82.15;100858.34;5002135;28;20316;-76
2023/06/18 04:10:41;;;;;;;16.90;15.10;;;;;;;13.02;82.09;100866.19;5002432;28;20209;-76
2023/06/18 04:13:07;;;;;;;16.70;14.30;;;;;;;13.13;82.04;100864.63;5002612;28;20684;-76
2023/06/18 04:15:34;;;;;;;15.53;13.93;;;;;;;13.23;81.97;100869.47;5000425;28;20236;-76
2023/06/18 04:18:00;;;;;;;16.40;12.93;;;;;;;13.31;81.85;100871.19;5001803;28;20234;-76
2023/06/18 04:20:27;;;;;;;15.83;14.23;;;;;;;13.42;81.77;100866.19;5001149;28;20254;-76
2023/06/18 04:22:53;;;;;;;17.43;15.07;;;;;;;13.52;81.46;100861.19;5000848;28;20293;-76
2023/06/18 04:25:21;;;;;;;15.87;14.30;;;;;;;13.62;81.61;100855.38;4999732;28;20305;-76
2023/06/18 04:27:51;;;;;;;17.40;13.90;;;;;;;13.74;81.50;100860.66;5000670;28;20981;-76
2023/06/18 04:30:18;;;;;;;17.00;15.20;;;;;;;13.82;81.09;100859.72;5007992;28;20212;-76
2023/06/18 04:32:45;;;;;;;17.27;13.80;;;;;;;13.93;80.81;100863.41;4999238;28;20210;-75
2023/06/18 04:35:12;;;;;;;15.20;13.60;;;;;;;14.04;80.78;100871.66;5002225;28;20209;-76
2023/06/18 04:37:40;;;;;;;15.30;13.80;;;;;;;14.14;80.72;100866.63;5000420;28;20229;-75
2023/06/18 04:40:10;;;;;;;15.63;14.07;;;;;;;14.26;80.57;100871.09;5001113;28;20217;-76
2023/06/18 04:42:37;;;;;;;14.20;12.70;;;;;;;14.37;80.31;100874.78;5001930;28;20722;-76
2023/06/18 04:45:08;;;;;;;15.77;13.37;;;;;;;14.49;80.79;100872.06;5000562;28;20205;-76
2023/06/18 04:47:35;;;;;;;15.10;13.00;;;;;;;14.63;80.21;100881.13;5000623;28;20228;-76
2023/06/18 04:50:02;;;;;;;15.27;13.77;;;;;;;14.75;80.23;100882.94;5018264;28;20624;-77
2023/06/18 04:52:30;;;;;;;14.73;13.20;;;;;;;14.88;79.91;100881.69;4998385;28;20223;-76
2023/06/18 04:54:57;;;;;;;14.13;12.70;;;;;;;15.01;79.76;100875.16;4995051;28;20204;-76
2023/06/18 04:57:24;;;;;;;13.97;12.43;;;;;;;15.14;79.32;100884.53;4998726;28;20205;-76
2023/06/18 04:59:51;;;;;;;13.93;12.43;;;;;;;15.25;78.80;100888.97;4998725;28;20229;-76
2023/06/18 05:02:19;;;;;;;15.33;13.83;;;;;;;15.37;79.12;100885.44;4998336;28;20205;-75
2023/06/18 05:04:45;;;;;;;12.13;10.97;;;;;;;15.47;78.64;100893.63;4999484;28;20241;-76
2023/06/18 05:07:13;;;;;;;13.93;12.43;;;;;;;15.59;78.23;100890.84;4997682;28;20218;-76
2023/06/18 05:09:41;;;;;;;14.33;12.73;;;;;;;15.71;78.08;100885.38;5013233;28;20217;-77
2023/06/18 05:12:09;;;;;;;11.87;10.77;;;;;;;15.84;77.95;100878.00;4998267;28;20578;-76
2023/06/18 05:14:35;;;;;;;15.87;12.10;;;;;;;15.95;77.48;100882.41;4999153;28;20202;-76
2023/06/18 05:17:01;;;;;;;13.90;12.40;;;;;;;16.05;77.53;100883.72;4995726;28;20360;-76
2023/06/18 05:19:29;;;;;;;15.43;12.77;;;;;;;16.14;77.46;100897.56;4996526;28;20731;-76
2023/06/18 05:21:57;;;;;;;13.93;11.20;;;;;;;16.25;76.91;100890.53;4997486;28;20203;-76
2023/06/18 05:24:24;;;;;;;15.43;12.60;;;;;;;16.34;76.70;100883.81;5012970;28;20279;-76
2023/06/18 05:26:51;;;;;;;14.57;11.77;;;;;;;16.42;76.72;100882.06;4994070;28;20583;-76
2023/06/18 05:29:18;;;;;;;13.13;11.83;;;;;;;16.50;76.31;100889.06;4998113;28;20223;-76
2023/06/18 05:31:47;;;;;;;12.43;11.17;;;;;;;16.60;76.34;100899.09;4994235;28;20205;-76
2023/06/18 05:34:20;;;;;;;13.17;11.87;;;;;;;16.69;76.27;100899.63;4996898;28;20583;-76
2023/06/18 05:36:48;;;;;;;12.50;11.30;;;;;;;16.77;76.13;100894.06;4995949;28;20637;-76
2023/06/18 05:39:15;;;;;;;13.03;11.63;;;;;;;16.87;75.58;100900.69;4998440;28;20227;-76
2023/06/18 05:41:41;;;;;;;11.80;10.63;;;;;;;16.95;75.50;100889.75;4995439;28;20211;-76
2023/06/18 05:44:07;;;;;;;12.33;11.07;;;;;;;17.04;75.21;100892.94;5012634;28;20209;-76
2023/06/18 05:46:34;;;;;;;13.00;11.70;;;;;;;17.14;75.52;100904.88;4996641;28;20223;-77
2023/06/18 05:49:01;;;;;;;12.33;11.07;;;;;;;17.23;75.10;100906.13;4995775;28;20223;-77
2023/06/18 05:51:28;;;;;;;13.47;11.17;;;;;;;17.33;75.26;100915.44;4995756;28;20777;-76
2023/06/18 05:53:56;;;;;;;12.77;11.17;;;;;;;17.41;74.48;100917.84;4994614;28;20578;-76
2023/06/18 05:56:23;;;;;;;13.37;11.97;;;;;;;17.52;73.85;100923.31;4995128;28;20200;-76
2023/06/18 05:58:50;;;;;;;11.83;10.63;;;;;;;17.60;74.08;100914.28;4993671;28;20491;-76
2023/06/18 06:01:18;;;;;;;14.03;11.37;;;;;;;17.68;73.61;100919.31;4994824;28;20206;-76
2023/06/18 06:03:45;;;;;;;14.60;10.97;;;;;;;17.77;73.36;100913.69;4993682;28;20644;-77
2023/06/18 06:06:11;;;;;;;11.80;10.70;;;;;;;17.85;73.18;100912.66;4995092;28;20648;-76
2023/06/18 06:08:38;;;;;;;12.10;10.20;;;;;;;17.96;73.69;100921.53;4992664;28;20247;-77
2023/06/18 06:11:08;;;;;;;11.83;10.50;;;;;;;18.05;72.91;100920.09;4995053;28;20303;-77
2023/06/18 06:13:35;;;;;;;12.20;11.00;;;;;;;18.15;72.92;100922.13;5011618;28;20712;-76
2023/06/18 06:16:08;;;;;;;12.57;10.70;;;;;;;18.25;72.33;100912.66;4992670;28;20708;-76
2023/06/18 06:18:34;;;;;;;11.33;10.23;;;;;;;18.35;71.88;100920.03;4993745;28;20232;-76
2023/06/18 06:21:01;;;;;;;11.00;9.93;;;;;;;18.29;72.10;100919.59;4987968;28;20307;-76
2023/06/18 06:23:31;;;;;;;10.83;9.00;;;;;;;18.36;71.82;100921.59;4994601;28;20255;-76
2023/06/18 06:26:01;;;;;;;11.00;9.90;;;;;;;18.45;71.83;100917.47;4994220;28;20694;-76
2023/06/18 06:28:30;;;;;;;10.97;9.90;;;;;;;18.57;72.55;100927.88;4990432;28;21911;-76
2023/06/18 06:30:57;;;;;;;10.13;9.13;;;;;;;18.67;71.95;100927.19;4993547;28;20204;-76
2023/06/18 06:33:23;;;;;;;9.97;8.73;;;;;;;18.92;70.90;100930.81;4993728;28;20320;-76
2023/06/18 06:35:50;;;;;;;9.43;8.43;;;;;;;19.04;70.34;100930.50;4987496;28;20780;-76
2023/06/18 06:38:17;;;;;;;9.73;8.40;;;;;;;19.15;69.41;100939.34;4992196;28;20228;-77
2023/06/18 06:40:43;;;;;;;9.73;8.83;;;;;;;19.26;69.79;100936.78;4994514;28;20223;-76
2023/06/18 06:43:13;;;;;;;9.77;8.87;;;;;;;19.25;70.20;100932.56;4995273;28;20244;-77
2023/06/18 06:45:56;;;;;;;10.03;9.03;;;;;;;19.47;69.57;100929.63;4994970;28;20197;-77
2023/06/18 06:48:46;;;;;;;9.67;8.77;;;;;;;19.59;69.68;100937.31;4989145;28;20232;-77
2023/06/18 06:51:24;;;;;;;9.43;8.33;;;;;;;19.70;66.72;100937.34;4993762;28;20413;-76
2023/06/18 06:53:53;;;;;;;9.30;8.33;;;;;;;19.62;68.09;100941.16;4995213;28;20258;-76
2023/06/18 06:56:20;;;;;;;8.50;7.70;;;;;;;19.69;68.43;100941.19;4994283;28;20744;-76
2023/06/18 06:58:46;;;;;;;8.13;7.33;;;;;;;19.79;66.88;100941.22;4992394;28;20787;-76
2023/06/18 07:01:15;;;;;;;8.63;7.73;;;;;;;20.07;66.49;100941.31;4993619;28;20220;-76
2023/06/18 07:03:42;;;;;;;8.20;7.40;;;;;;;20.17;65.09;100935.22;4990173;28;20223;-77
2023/06/18 07:06:08;;;;;;;9.07;7.37;;;;;;;20.27;66.21;100937.16;4994363;28;20682;-76
2023/06/18 07:08:35;;;;;;;8.17;7.40;;;;;;;20.34;66.92;100945.19;4993466;28;20237;-76
2023/06/18 07:11:01;;;;;;;8.53;7.57;;;;;;;20.47;65.35;100946.38;4993568;28;20203;-76
2023/06/18 07:13:28;;;;;;;9.03;7.40;;;;;;;20.55;64.51;100942.50;4991622;28;20210;-77
2023/06/18 07:15:54;;;;;;;8.10;7.30;;;;;;;20.65;66.52;100932.94;4991391;28;20644;-76
2023/06/18 07:18:22;;;;;;;7.90;7.10;;;;;;;20.77;65.66;100938.69;5009200;28;20260;-76
2023/06/18 07:20:48;;;;;;;7.73;7.03;;;;;;;20.86;63.56;100930.25;4992836;28;20587;-76
2023/06/18 07:23:15;;;;;;;7.33;6.63;;;;;;;20.94;63.78;100929.09;4991815;28;20673;-76
2023/06/18 07:25:41;;;;;;;6.67;6.07;;;;;;;21.04;62.12;100926.41;4993924;28;20730;-76
2023/06/18 07:28:07;;;;;;;6.63;6.00;;;;;;;21.14;61.68;100930.22;4991043;28;20236;-76
2023/06/18 07:30:34;;;;;;;7.13;6.47;;;;;;;21.22;61.92;100926.38;4988147;28;20574;-76
2023/06/18 07:33:01;;;;;;;6.27;5.63;;;;;;;21.31;61.05;100926.72;4991483;28;20224;-77
2023/06/18 07:35:28;;;;;;;7.13;6.03;;;;;;;21.40;61.43;100922.47;4991443;28;20209;-76
2023/06/18 07:37:55;;;;;;;5.70;5.20;;;;;;;21.50;61.38;100924.34;4991689;28;20891;-76
2023/06/18 07:40:21;;;;;;;5.97;5.47;;;;;;;21.60;61.18;100938.88;4991436;28;20315;-76
2023/06/18 07:42:47;;;;;;;6.07;5.57;;;;;;;21.69;60.87;100933.91;4991505;28;20891;-77
2023/06/18 07:45:14;;;;;;;6.50;5.90;;;;;;;21.77;60.98;100927.31;4989255;28;20874;-76
2023/06/18 07:47:40;;;;;;;6.27;5.67;;;;;;;21.86;58.00;100933.81;4992064;28;20841;-77
2023/06/18 07:50:08;;;;;;;6.33;5.73;;;;;;;21.90;57.56;100925.72;4989310;28;20955;-76
2023/06/18 07:52:36;;;;;;;6.57;5.97;;;;;;;21.97;60.32;100926.44;4990293;28;20213;-76
2023/06/18 07:55:03;;;;;;;6.10;5.53;;;;;;;22.03;58.38;100922.19;4989247;28;20206;-77
2023/06/18 07:57:29;;;;;;;5.33;4.90;;;;;;;22.13;60.66;100918.66;4991229;28;20211;-76
2023/06/18 07:59:55;;;;;;;5.23;4.73;;;;;;;22.23;54.82;100922.41;4989413;28;20232;-76
2023/06/18 08:02:22;;;;;;;4.77;4.37;;;;;;;22.31;59.73;100934.69;4988080;28;20235;-76
2023/06/18 08:04:48;;;;;;;5.97;5.37;;;;;;;22.39;53.87;100928.06;4988070;28;20669;-76
2023/06/18 08:07:14;;;;;;;6.27;5.03;;;;;;;22.47;59.38;100924.19;4989970;28;20619;-76
2023/06/18 08:09:42;;;;;;;5.87;5.37;;;;;;;22.54;55.17;100930.28;4988759;28;20691;-76
2023/06/18 08:12:10;;;;;;;5.40;4.90;;;;;;;22.61;55.42;100929.47;4989174;28;20205;-77
2023/06/18 08:14:37;;;;;;;5.50;5.00;;;;;;;22.67;53.53;100922.50;4989369;28;21262;-76
2023/06/18 08:17:04;;;;;;;5.67;5.17;;;;;;;22.77;54.24;100918.94;4986635;28;20219;-76
2023/06/18 08:19:30;;;;;;;6.53;5.90;;;;;;;22.83;52.83;100911.97;4989410;28;20232;-76
2023/06/18 08:21:57;;;;;;;5.90;5.32;;;;;;;22.90;52.84;100918.03;4990473;28;20231;-76
2023/06/18 08:24:23;;;;;;;7.40;6.03;;;;;;;22.98;54.57;100919.47;4989376;28;20200;-77
2023/06/18 08:26:51;;;;;;;5.80;5.20;;;;;;;23.03;54.41;100913.66;4988851;28;20247;-77
2023/06/18 08:29:17;;;;;;;6.15;5.55;;;;;;;23.13;55.82;100920.88;4986231;28;20236;-76
2023/06/18 08:31:44;;;;;;;7.35;5.50;;;;;;;23.22;54.28;100920.41;4985600;28;20201;-76
2023/06/18 08:34:10;;;;;;;5.95;5.35;;;;;;;23.31;55.09;100912.63;4985672;28;20205;-76
2023/06/18 08:36:37;;;;;;;6.93;5.88;;;;;;;23.41;52.76;100916.38;4987944;28;20204;-77
2023/06/18 08:39:03;;;;;;;7.28;5.75;;;;;;;23.49;55.48;100910.50;4987745;28;20339;-76
2023/06/18 08:41:33;;;;;;;5.03;4.63;;;;;;;23.57;49.94;100922.69;4986682;28;20221;-76
2023/06/18 08:44:00;;;;;;;5.88;4.78;;;;;;;23.64;47.09;100919.94;4987595;28;20385;-76
2023/06/18 08:46:32;;;;;;;3.70;3.40;;;;;;;23.67;51.77;100911.78;4986232;28;20211;-77
2023/06/18 08:49:00;;;;;;;4.03;3.72;;;;;;;23.66;46.04;100912.19;4989185;28;20239;-76
2023/06/18 08:51:27;;;;;;;3.92;3.38;;;;;;;23.69;44.44;100914.09;4926831;28;20234;-76
2023/06/18 08:54:00;;;;;;;4.60;4.20;;;;;;;23.74;45.76;100903.59;4951616;28;20207;-76
2023/06/18 08:56:29;;;;;;;5.50;5.00;;;;;;;23.77;48.24;100912.06;4948888;28;20214;-76
2023/06/18 08:59:00;;;;;;;5.30;4.80;;;;;;;23.78;48.87;100915.09;4947279;28;20222;-75
2023/06/18 09:01:27;;;;;;;4.78;4.28;;;;;;;23.78;50.96;100912.41;4956548;28;20314;-75
2023/06/18 09:03:59;;;;;;;5.32;4.82;;;;;;;23.77;54.00;100906.66;4963170;28;20206;-75
2023/06/18 09:06:26;;;;;;;5.15;4.65;;;;;;;23.89;52.44;100912.28;4951287;28;20209;-75
2023/06/18 09:08:53;;;;;;;4.80;4.38;;;;;;;24.03;50.39;100912.06;4952482;28;20225;-73
2023/06/18 09:11:19;;;;;;;4.75;4.35;;;;;;;24.13;47.78;100911.16;4953233;28;20202;-73
2023/06/18 09:13:46;;;;;;;5.45;3.90;;;;;;;24.25;45.43;100905.19;4956634;28;20575;-73
2023/06/18 09:16:12;;;;;;;4.00;3.70;;;;;;;24.35;45.87;100911.59;4955215;28;20217;-73
2023/06/18 09:18:41;;;;;;;4.88;3.50;;;;;;;24.39;44.92;100904.97;4954695;28;20221;-73
2023/06/18 09:21:08;;;;;;;4.22;3.83;;;;;;;24.42;44.87;100906.06;4953047;28;20218;-73
2023/06/18 09:23:34;;;;;;;3.75;3.33;;;;;;;24.49;46.44;100901.31;4951861;28;20198;-73
2023/06/18 09:26:03;;;;;;;4.57;4.05;;;;;;;24.61;47.36;100900.75;4951959;28;20207;-73
2023/06/18 09:28:30;;;;;;;4.53;3.78;;;;;;;24.71;47.46;100899.81;4953703;28;20584;-73
2023/06/18 09:30:59;;;;;;;4.53;4.05;;;;;;;24.83;48.11;100901.16;4948507;28;20201;-73
2023/06/18 09:33:33;;;;;;;4.25;3.50;;;;;;;24.97;44.59;100898.94;4952261;28;20207;-73
2023/06/18 09:36:02;;;;;;;4.82;3.42;;;;;;;24.98;43.87;100897.78;4951258;28;20214;-73
2023/06/18 09:38:34;;;;;;;4.55;3.38;;;;;;;24.98;42.35;100894.31;4950884;28;20611;-73
2023/06/18 09:41:00;;;;;;;3.63;3.30;;;;;;;25.00;43.07;100897.34;4946607;28;21190;-73
2023/06/18 09:43:34;;;;;;;3.75;3.45;;;;;;;25.05;43.58;100894.16;4963050;28;20316;-73
2023/06/18 09:46:04;;;;;;;4.75;3.80;;;;;;;25.14;46.61;100897.09;4956611;28;20194;-73
2023/06/18 09:48:31;;;;;;;3.75;3.45;;;;;;;25.40;49.61;100899.69;4947662;28;20234;-73
2023/06/18 09:50:58;;;;;;;4.18;3.78;;;;;;;25.52;42.89;100896.31;4950770;28;20208;-73
2023/06/18 09:53:26;;;;;;;5.45;3.67;;;;;;;25.62;41.62;100895.34;4940415;28;20209;-73
2023/06/18 09:55:53;;;;;;;3.85;3.55;;;;;;;25.73;43.36;100901.28;4949964;28;20220;-73
2023/06/18 09:58:19;;;;;;;4.38;3.97;;;;;;;25.62;40.13;100892.63;4953526;23;20237;-73
2023/06/18 10:01:02;;;;;;;4.40;4.00;;;;;;;25.61;39.98;100904.63;4909690;28;20232;-71
2023/06/18 10:03:29;;;;;;;4.50;4.03;;;;;;;25.64;41.08;100887.56;4907416;28;20352;-71
2023/06/18 10:05:57;;;;;;;4.28;3.88;;;;;;;25.73;41.43;100890.47;4912213;28;20667;-71
2023/06/18 10:08:24;;;;;;;4.85;4.15;;;;;;;25.85;43.87;100883.63;4910286;28;20238;-73
2023/06/18 10:10:52;;;;;;;3.90;3.60;;;;;;;25.92;47.33;100884.25;4910132;28;20210;-71
2023/06/18 10:13:18;;;;;;;4.13;3.72;;;;;;;25.97;43.14;100885.69;4909927;28;20849;-71
2023/06/18 10:15:46;;;;;;;4.47;3.58;;;;;;;25.98;43.42;100882.56;4911864;28;20217;-71
2023/06/18 10:18:22;;;;;;;4.30;3.90;;;;;;;25.97;42.63;100872.16;4907360;28;20237;-71
2023/06/18 10:20:49;;;;;;;4.30;3.90;;;;;;;25.90;44.37;100877.72;4914854;28;20222;-71
2023/06/18 10:23:17;;;;;;;3.95;3.58;;;;;;;25.88;40.46;100880.06;4911247;28;21657;-71
2023/06/18 10:25:44;;;;;;;3.95;3.65;;;;;;;25.86;39.08;100879.75;4909870;28;20243;-71
2023/06/18 10:28:12;;;;;;;3.97;3.58;;;;;;;25.91;40.25;100880.00;4912037;28;20226;-73
2023/06/18 10:30:39;;;;;;;4.30;3.95;;;;;;;25.99;40.48;100870.56;4912007;28;20518;-71
2023/06/18 10:33:05;;;;;;;4.22;3.83;;;;;;;26.10;41.70;100875.72;4913493;28;20218;-71
2023/06/18 10:35:32;;;;;;;4.50;4.10;;;;;;;26.13;37.60;100883.75;4912508;28;20220;-73
2023/06/18 10:38:00;;;;;;;3.80;3.50;;;;;;;26.15;43.72;100875.22;4913135;28;20242;-71
2023/06/18 10:40:26;;;;;;;3.50;3.20;;;;;;;26.12;39.58;100876.84;4913355;28;20214;-71
2023/06/18 10:43:03;;;;;;;5.00;3.50;;;;;;;26.15;40.42;100867.84;4914609;28;20742;-71
2023/06/18 10:45:31;;;;;;;4.00;3.70;;;;;;;26.18;40.71;100868.94;4915438;28;20462;-71
2023/06/18 10:48:16;;;;;;;3.60;3.30;;;;;;;26.14;40.74;100877.16;4910639;28;20225;-71
2023/06/18 10:51:16;;;;;;;4.35;3.90;;;;;;;26.09;38.50;100869.56;4912419;28;20266;-71
2023/06/18 10:53:44;;;;;;;3.72;3.30;;;;;;;26.06;38.88;100867.69;4911809;28;20214;-71
2023/06/18 10:56:10;;;;;;;4.05;3.50;;;;;;;26.03;39.03;100865.84;4910496;28;21034;-73
2023/06/18 10:58:40;;;;;;;3.60;3.30;;;;;;;26.07;38.38;100863.03;4909839;28;20705;-71
2023/06/18 11:01:23;;;;;;;3.60;3.30;;;;;;;26.22;39.57;100858.81;4907814;28;20237;-71
2023/06/18 11:04:01;;;;;;;4.25;3.50;;;;;;;26.39;39.49;100860.31;4909313;28;20835;-71
2023/06/18 11:06:29;;;;;;;2.95;2.70;;;;;;;26.54;39.63;100869.59;4906382;28;20232;-71
2023/06/18 11:08:55;;;;;;;3.85;3.55;;;;;;;26.54;39.09;100864.94;4906517;28;20969;-71
2023/06/18 11:11:24;;;;;;;3.70;3.40;;;;;;;26.45;36.07;100862.06;4906967;28;20241;-71
2023/06/18 11:13:53;;;;;;;3.88;3.55;;;;;;;26.39;36.80;100855.66;4907363;28;20254;-71
2023/06/18 11:16:22;;;;;;;4.47;3.40;;;;;;;26.40;40.04;100853.69;4909288;28;22695;-71
2023/06/18 11:18:49;;;;;;;4.10;3.67;;;;;;;26.49;38.38;100843.78;4908972;28;21831;-71
2023/06/18 11:21:17;;;;;;;4.47;3.80;;;;;;;26.62;39.47;100847.34;4905503;28;20300;-71